createdAt,value
2019-03-08T00:09:30.456Z,78.03
2019-03-08T00:19:30.379Z,77.04
2019-03-08T00:29:30.538Z,76.63
2019-03-08T00:39:30.487Z,77.39
2019-03-08T00:49:32.129Z,78.16
2019-03-08T00:59:31.518Z,79.50
2019-03-08T01:09:31.216Z,80.80
2019-03-08T01:19:32.979Z,80.75
2019-03-08T01:29:30.524Z,81.49
2019-03-08T01:39:30.528Z,82.36
2019-03-08T01:49:30.483Z,83.82
2019-03-08T01:59:31.785Z,86.11
2019-03-08T02:09:30.438Z,87.80
2019-03-08T02:19:31.276Z,89.99
2019-03-08T02:29:30.404Z,91.51
2019-03-08T02:39:30.517Z,92.83
2019-03-08T02:49:30.390Z,92.47
2019-03-08T02:59:30.400Z,92.55
2019-03-08T03:09:30.336Z,91.16
2019-03-08T03:19:30.364Z,91.35
2019-03-08T03:29:30.434Z,91.87
2019-03-08T03:39:30.439Z,92.22
2019-03-08T03:49:30.406Z,91.73
2019-03-08T03:59:30.439Z,92.96
2019-03-08T04:09:30.627Z,93.86
2019-03-08T04:29:36.293Z,95.50
2019-03-08T04:39:35.789Z,95.29
2019-03-08T04:49:35.744Z,96.79
2019-03-08T04:59:35.794Z,96.83
2019-03-08T05:09:36.508Z,97.67
2019-03-08T05:19:35.883Z,97.64
2019-03-08T05:29:35.728Z,96.66
2019-03-08T05:39:35.883Z,95.60
2019-03-08T05:49:35.705Z,94.51
2019-03-08T05:59:35.700Z,94.39
2019-03-08T06:09:35.735Z,93.82
2019-03-08T06:19:35.750Z,93.14
2019-03-08T06:29:35.781Z,93.69
2019-03-08T06:39:35.911Z,93.78
2019-03-08T06:49:35.709Z,94.11
2019-03-08T06:59:35.798Z,94.41
2019-03-08T07:09:35.698Z,94.26
2019-03-08T07:19:40.709Z,95.05
2019-03-08T07:29:35.790Z,93.81
2019-03-08T07:39:35.942Z,93.25
2019-03-08T07:49:36.364Z,92.45
2019-03-08T07:59:35.732Z,93.18
2019-03-08T08:09:35.664Z,92.66
2019-03-08T08:19:37.236Z,91.80
2019-03-08T08:29:35.883Z,88.94
2019-03-08T08:39:35.844Z,87.07
2019-03-08T08:49:35.749Z,84.76
2019-03-08T08:59:36.139Z,84.08
2019-03-08T09:09:35.683Z,83.67
2019-03-08T09:19:35.682Z,84.17
2019-03-08T09:29:41.199Z,79.29
2019-03-08T09:39:35.735Z,79.08
2019-03-08T09:49:35.827Z,73.34
2019-03-08T09:59:35.678Z,75.73
2019-03-08T10:09:35.800Z,76.75
2019-03-08T10:19:37.083Z,73.60
2019-03-08T10:29:39.646Z,70.28
2019-03-08T10:39:35.824Z,70.90
2019-03-08T10:49:35.898Z,71.00
2019-03-08T10:59:36.969Z,69.81
2019-03-08T11:09:35.752Z,70.13
2019-03-08T11:19:35.662Z,71.17
2019-03-08T11:29:36.695Z,71.93
2019-03-08T11:39:35.781Z,65.77
2019-03-08T11:49:35.857Z,59.80
2019-03-08T11:59:35.808Z,54.70
2019-03-08T12:09:35.820Z,56.74
2019-03-08T12:19:35.807Z,53.85
2019-03-08T12:29:36.357Z,52.80
2019-03-08T12:39:36.360Z,53.86
2019-03-08T12:49:35.773Z,51.73
2019-03-08T12:59:39.176Z,49.42
2019-03-08T13:19:45.426Z,56.28
2019-03-08T13:29:44.025Z,56.60
2019-03-08T13:39:44.035Z,58.09
2019-03-08T13:49:44.545Z,56.99
2019-03-08T13:59:44.059Z,54.82
2019-03-08T14:09:43.878Z,52.21
2019-03-08T14:19:43.946Z,54.95
2019-03-08T14:29:43.989Z,52.47
2019-03-08T14:39:44.313Z,50.31
2019-03-08T14:49:44.183Z,51.99
2019-03-08T14:59:44.150Z,55.45
2019-03-08T15:09:44.115Z,56.37
2019-03-08T15:19:43.982Z,57.84
2019-03-08T15:29:43.978Z,56.49
2019-03-08T15:39:43.997Z,58.20
2019-03-08T15:49:43.936Z,64.62
2019-03-08T15:59:44.682Z,67.66
2019-03-08T16:09:43.991Z,68.91
2019-03-08T16:19:43.915Z,72.17
2019-03-08T16:29:43.934Z,72.25
2019-03-08T16:49:51.492Z,74.35
2019-03-08T16:59:49.925Z,73.81
2019-03-08T17:09:50.019Z,74.19
2019-03-08T17:19:49.944Z,72.52
2019-03-08T17:29:49.938Z,72.64
2019-03-08T17:39:49.918Z,74.08
2019-03-08T17:49:49.961Z,75.08
2019-03-08T17:59:49.993Z,75.85
2019-03-08T18:09:49.939Z,77.42
2019-03-08T18:19:49.960Z,79.67
2019-03-08T18:29:49.956Z,80.02
2019-03-08T18:39:50.011Z,79.71
2019-03-08T18:49:49.900Z,79.26
2019-03-08T18:59:49.885Z,78.49
2019-03-08T19:09:49.900Z,77.84
2019-03-08T19:19:49.913Z,76.89
2019-03-08T19:29:49.936Z,76.46
2019-03-08T19:39:49.878Z,74.40
2019-03-08T19:49:49.921Z,73.43
2019-03-08T19:59:49.905Z,73.05
2019-03-08T20:09:49.926Z,73.24
2019-03-08T20:19:50.657Z,73.19
2019-03-08T20:29:49.897Z,73.12
2019-03-08T20:39:49.843Z,73.13
2019-03-08T20:49:49.954Z,72.97
2019-03-08T20:59:49.924Z,72.34
2019-03-08T21:09:49.955Z,71.65
2019-03-08T21:19:49.875Z,70.33
2019-03-08T21:29:49.916Z,70.08
2019-03-08T21:39:49.864Z,69.62
2019-03-08T21:49:49.929Z,69.67
2019-03-08T21:59:49.917Z,71.97
2019-03-08T22:09:50.067Z,71.51
2019-03-08T22:19:49.922Z,70.78
2019-03-08T22:29:49.856Z,70.55
2019-03-08T22:39:50.842Z,70.00
2019-03-08T22:49:49.862Z,70.11
2019-03-08T22:59:49.853Z,70.57
2019-03-08T23:09:49.887Z,70.95
2019-03-08T23:19:49.773Z,71.03
2019-03-08T23:29:50.916Z,71.27
2019-03-08T23:39:49.873Z,71.29
2019-03-08T23:49:49.874Z,72.74
2019-03-08T23:59:49.882Z,75.06
